Time;durP1;ratioP1;P1;durP2;ratioP2;P2;SDS_P1;SDS_P2;PMS_P1;PMS_P2;Temp;Humidity;BMP_temperature;BMP_pressure;BME280_temperature;BME280_humidity;BME280_pressure;Samples;Min_cycle;Max_cycle;Signal;HPM_P1;HPM_P2
2023/04/02 00:01:00;;;;;;;4.22;3.60;;;;;;;8.73;70.95;98489.34;5036660;28;20027;-89
2023/04/02 00:03:44;;;;;;;3.50;3.20;;;;;;;8.73;70.99;98494.91;5036117;28;20503;-89
2023/04/02 00:06:34;;;;;;;5.07;4.00;;;;;;;8.70;70.81;98492.81;5022156;28;20040;-89
2023/04/02 00:09:14;;;;;;;5.00;3.72;;;;;;;8.68;70.96;98493.16;5045564;28;20563;-89
2023/04/02 00:11:43;;;;;;;4.50;3.78;;;;;;;8.53;71.11;98491.03;5054005;28;20056;-90
2023/04/02 00:14:30;;;;;;;5.03;4.25;;;;;;;8.61;71.69;98503.25;5034996;28;20584;-90
2023/04/02 00:16:57;;;;;;;3.90;3.50;;;;;;;8.37;72.07;98494.44;5026809;28;20107;-89
2023/04/02 00:19:48;;;;;;;3.75;3.45;;;;;;;8.34;72.39;98499.91;5036099;28;20028;-89
2023/04/02 00:22:20;;;;;;;5.68;3.72;;;;;;;8.23;72.73;98505.09;5051306;28;20510;-89
2023/04/02 00:24:49;;;;;;;3.85;3.47;;;;;;;8.04;72.63;98505.59;5040359;28;20024;-90
2023/04/02 00:27:15;;;;;;;4.40;3.47;;;;;;;8.16;72.89;98508.44;5034616;28;20563;-90
2023/04/02 00:29:59;;;;;;;4.68;4.15;;;;;;;8.10;72.06;98507.81;5035829;28;20067;-91
2023/04/02 00:32:31;;;;;;;4.78;3.60;;;;;;;8.17;72.22;98495.34;5036048;28;20032;-90
2023/04/02 00:34:58;;;;;;;3.95;3.30;;;;;;;8.31;71.20;98492.22;5035076;28;20072;-89
2023/04/02 00:37:27;;;;;;;4.35;3.72;;;;;;;8.33;71.34;98493.50;5035819;28;20071;-90
2023/04/02 00:40:26;;;;;;;4.03;3.65;;;;;;;8.32;70.44;98488.28;5035781;28;20057;-90
2023/04/02 00:42:56;;;;;;;4.38;3.95;;;;;;;8.44;70.20;98496.66;5065032;28;20109;-90
2023/04/02 00:45:28;;;;;;;6.20;4.50;;;;;;;8.36;70.20;98494.81;5050173;28;20021;-90
2023/04/02 00:47:56;;;;;;;7.03;4.97;;;;;;;8.41;70.47;98505.72;5035720;28;20040;-89
2023/04/02 00:50:39;;;;;;;8.63;4.97;;;;;;;8.39;70.69;98494.13;5035254;28;20406;-89
2023/04/02 00:53:25;;;;;;;7.40;5.07;;;;;;;8.32;70.21;98489.09;5053111;28;20048;-89
2023/04/02 00:55:51;;;;;;;5.22;3.88;;;;;;;8.35;70.41;98482.84;5034194;28;20056;-90
2023/04/02 00:58:32;;;;;;;6.50;5.05;;;;;;;8.35;70.43;98480.03;5045405;28;20085;-90
2023/04/02 01:00:59;;;;;;;5.88;5.18;;;;;;;8.25;70.35;98484.09;5034926;28;20086;-89
2023/04/02 01:03:52;;;;;;;7.38;5.65;;;;;;;8.21;70.88;98496.25;5034807;28;20036;-90
2023/04/02 01:06:19;;;;;;;6.72;4.93;;;;;;;8.28;70.79;98488.97;5034871;28;20439;-91
2023/04/02 01:09:13;;;;;;;6.53;5.13;;;;;;;8.25;71.17;98502.78;5038186;28;20415;-89
2023/04/02 01:12:08;;;;;;;4.22;3.83;;;;;;;7.97;71.72;98512.56;5026134;28;20048;-91
2023/04/02 01:15:08;;;;;;;4.65;4.05;;;;;;;8.01;72.02;98507.91;5027191;28;20119;-91
2023/04/02 01:17:45;;;;;;;;;;;;;;;7.96;72.61;98510.91;5034927;28;20070;-90
2023/04/02 01:20:35;;;;;;;4.28;3.58;;;;;;;7.66;73.58;98516.53;5034565;28;19909;-90
2023/04/02 01:23:13;;;;;;;3.63;3.33;;;;;;;7.65;73.93;98508.53;5044760;28;20037;-91
2023/04/02 01:26:03;;;;;;;3.70;3.20;;;;;;;7.60;74.36;98503.97;5035039;28;20490;-91
2023/04/02 01:29:08;;;;;;;3.92;3.08;;;;;;;7.67;73.56;98498.69;5034844;28;20055;-91
2023/04/02 01:31:35;;;;;;;3.47;2.60;;;;;;;7.79;73.29;98497.97;5039553;28;20028;-90
2023/04/02 01:34:03;;;;;;;3.63;2.83;;;;;;;7.89;72.95;98509.81;5052406;28;20021;-89
2023/04/02 01:36:53;;;;;;;3.10;2.60;;;;;;;7.85;72.61;98509.69;5034836;28;20126;-90
2023/04/02 01:39:33;;;;;;;6.03;2.60;;;;;;;8.05;72.63;98512.78;5052397;28;20068;-90
2023/04/02 01:42:14;;;;;;;3.22;2.92;;;;;;;8.17;71.72;98528.75;5033923;28;20041;-90
2023/04/02 01:45:07;;;;;;;2.47;2.28;;;;;;;8.24;70.64;98521.47;5016518;28;20029;-90
2023/04/02 01:47:33;;;;;;;2.70;2.42;;;;;;;8.31;70.54;98515.34;5045677;28;20044;-89
2023/04/02 01:50:13;;;;;;;2.55;2.35;;;;;;;8.44;69.25;98510.59;5054729;28;20044;-87
2023/04/02 01:52:42;;;;;;;3.25;2.45;;;;;;;8.54;69.22;98524.13;5044322;28;20036;-89
2023/04/02 01:55:11;;;;;;;4.13;3.30;;;;;;;8.52;69.48;98520.88;5034478;28;20029;-90
2023/04/02 01:57:40;;;;;;;2.90;2.60;;;;;;;8.54;69.63;98514.97;5034469;28;20043;-89
2023/04/02 02:00:11;;;;;;;7.55;2.42;;;;;;;8.54;69.61;98514.97;5034617;28;20415;-89
2023/04/02 02:02:37;;;;;;;2.40;2.20;;;;;;;8.58;69.49;98513.13;5036734;28;20040;-89
2023/04/02 02:05:03;;;;;;;5.03;2.08;;;;;;;8.62;69.30;98513.25;5033858;28;20024;-89
2023/04/02 02:07:29;;;;;;;5.97;3.33;;;;;;;8.44;70.25;98488.31;5034241;28;20032;-90
2023/04/02 02:09:55;;;;;;;2.60;2.28;;;;;;;8.52;70.34;98511.72;5051856;28;20029;-90
2023/04/02 02:12:21;;;;;;;3.13;2.55;;;;;;;8.46;70.73;98502.72;5051072;28;20056;-89
2023/04/02 02:14:51;;;;;;;2.75;2.40;;;;;;;8.56;71.23;98510.66;5033171;28;20040;-89
2023/04/02 02:17:22;;;;;;;2.72;2.53;;;;;;;8.43;71.50;98503.41;5034132;28;20389;-90
2023/04/02 02:19:52;;;;;;;3.50;2.97;;;;;;;8.33;72.41;98496.31;5036181;28;20518;-90
2023/04/02 02:22:18;;;;;;;5.07;3.10;;;;;;;8.33;73.21;98510.22;5033347;28;20669;-90
2023/04/02 02:24:44;;;;;;;3.67;2.92;;;;;;;7.85;74.29;98470.72;5051565;28;20029;-89
2023/04/02 02:27:21;;;;;;;3.63;2.78;;;;;;;8.19;74.30;98518.88;5034036;28;20025;-90
2023/04/02 02:29:59;;;;;;;5.05;3.78;;;;;;;8.33;74.40;98513.03;5035077;28;20447;-90
2023/04/02 02:32:29;;;;;;;2.92;2.60;;;;;;;8.05;75.34;98521.16;5037062;28;20755;-90
2023/04/02 02:35:07;;;;;;;4.10;3.05;;;;;;;8.15;74.51;98517.94;5039232;28;20033;-89
2023/04/02 02:37:41;;;;;;;3.75;3.38;;;;;;;8.27;74.98;98512.41;5058210;28;20555;-90
2023/04/02 02:40:12;;;;;;;7.22;4.18;;;;;;;8.10;74.51;98515.38;5040899;28;20090;-90
2023/04/02 02:42:50;;;;;;;4.38;3.20;;;;;;;8.21;75.04;98502.66;5027954;28;20148;-89
2023/04/02 02:45:23;;;;;;;6.32;3.97;;;;;;;8.13;74.69;98497.97;5005915;28;20026;-90
2023/04/02 02:47:51;;;;;;;5.70;3.38;;;;;;;7.89;75.88;98504.25;5014917;28;20025;-89
2023/04/02 02:50:30;;;;;;;4.78;3.22;;;;;;;8.05;75.30;98512.78;5014777;28;20025;-92
2023/04/02 02:52:59;;;;;;;3.40;3.10;;;;;;;7.93;75.76;98497.66;5004851;28;20030;-89
2023/04/02 02:55:33;;;;;;;4.00;2.85;;;;;;;7.90;75.95;98495.56;5014781;28;20029;-88
2023/04/02 02:58:08;;;;;;;3.33;3.00;;;;;;;7.72;76.38;98490.16;5015045;28;20037;-91
2023/04/02 03:00:36;;;;;;;4.00;3.15;;;;;;;7.81;76.69;98481.72;5014606;28;20117;-90
2023/04/02 03:03:08;;;;;;;4.35;3.05;;;;;;;8.03;75.70;98485.31;5013927;28;20068;-89
2023/04/02 03:05:35;;;;;;;3.63;2.55;;;;;;;7.97;75.07;98481.91;5014588;28;20025;-90
2023/04/02 03:08:06;;;;;;;3.20;2.90;;;;;;;7.90;75.49;98492.78;5014722;28;20412;-89
2023/04/02 03:10:55;;;;;;;3.47;2.95;;;;;;;8.09;75.06;98495.06;5013406;28;20026;-90
2023/04/02 03:13:31;;;;;;;3.20;2.90;;;;;;;8.05;75.37;98502.47;5025259;28;20056;-90
2023/04/02 03:16:55;;;;;;;6.43;2.88;;;;;;;7.97;75.08;98509.75;5011385;28;20026;-90
2023/04/02 03:19:46;;;;;;;3.17;2.40;;;;;;;8.03;75.08;98503.97;5002340;28;20040;-90
2023/04/02 03:22:37;;;;;;;2.80;2.50;;;;;;;8.14;74.69;98508.78;5016240;28;20037;-89
2023/04/02 03:25:21;;;;;;;4.55;2.30;;;;;;;8.19;74.19;98520.88;5013563;28;20401;-89
2023/04/02 03:27:50;;;;;;;3.95;2.83;;;;;;;7.94;75.58;98517.97;5014197;28;20026;-90
2023/04/02 03:30:34;;;;;;;3.43;2.90;;;;;;;7.80;75.76;98521.03;5030275;28;20021;-90
2023/04/02 03:33:05;;;;;;;13.13;3.33;;;;;;;7.69;76.77;98521.44;5014145;28;20459;-89
2023/04/02 03:35:54;;;;;;;4.82;3.10;;;;;;;7.62;76.78;98526.75;5024919;28;20030;-90
2023/04/02 03:38:26;;;;;;;4.03;3.50;;;;;;;7.68;75.82;98524.56;5026407;28;20076;-89
2023/04/02 03:41:01;;;;;;;8.40;4.32;;;;;;;7.73;75.41;98532.72;5033034;28;20025;-89
2023/04/02 03:43:36;;;;;;;4.13;3.60;;;;;;;7.70;74.95;98517.50;5054538;28;20052;-90
2023/04/02 03:46:38;;;;;;;6.05;3.88;;;;;;;7.84;74.33;98527.53;5036795;28;20017;-90
2023/04/02 03:49:09;;;;;;;3.70;3.28;;;;;;;7.99;73.83;98537.25;4971570;28;20103;-89
2023/04/02 03:51:51;;;;;;;5.40;3.50;;;;;;;7.78;74.13;98523.34;5036646;28;20103;-90
2023/04/02 03:54:18;;;;;;;9.93;4.15;;;;;;;7.76;74.44;98529.25;5036272;28;20407;-89
2023/04/02 03:56:46;;;;;;;7.30;4.72;;;;;;;7.63;75.42;98528.38;5040046;28;20020;-89
2023/04/02 03:59:40;;;;;;;13.52;7.68;;;;;;;7.83;75.16;98523.13;5047258;28;20044;-89
2023/04/02 04:02:14;;;;;;;17.08;9.05;;;;;;;7.84;74.73;98528.38;5034560;28;20102;-90
2023/04/02 04:04:43;;;;;;;15.18;10.20;;;;;;;7.78;74.91;98528.91;5036352;28;20102;-89
2023/04/02 04:07:19;;;;;;;12.10;7.55;;;;;;;7.73;74.42;98525.19;5036505;28;20017;-91
2023/04/02 04:09:48;;;;;;;13.85;6.53;;;;;;;7.85;74.31;98529.19;5037674;28;20035;-90
2023/04/02 04:12:25;;;;;;;33.25;7.75;;;;;;;7.78;74.42;98537.25;5034405;28;20056;-89
2023/04/02 04:15:01;;;;;;;15.93;7.22;;;;;;;7.80;74.98;98530.22;5034798;28;20055;-90
2023/04/02 04:18:00;;;;;;;7.90;4.05;;;;;;;7.86;74.15;98542.75;5035602;28;20036;-89
2023/04/02 04:20:33;;;;;;;5.93;4.32;;;;;;;7.92;74.40;98546.16;5029522;28;20143;-89
2023/04/02 04:23:35;;;;;;;13.68;9.07;;;;;;;7.89;74.78;98549.63;5035264;28;20036;-89
2023/04/02 04:26:19;;;;;;;17.20;10.20;;;;;;;7.80;74.71;98543.31;4954491;28;20481;-90
2023/04/02 04:29:15;;;;;;;20.20;9.93;;;;;;;7.85;74.82;98543.13;5030126;28;20039;-90
2023/04/02 04:35:07;;;;;;;19.90;11.40;;;;;;;7.94;74.21;98543.84;5284435;22;20131;-88
2023/04/02 04:38:06;;;;;;;11.18;8.65;;;;;;;7.95;74.12;98553.03;5049760;28;20076;-89
2023/04/02 04:41:15;;;;;;;15.32;6.97;;;;;;;7.95;73.62;98550.25;5043553;28;20025;-88
2023/04/02 04:44:04;;;;;;;11.20;7.25;;;;;;;7.95;74.21;98559.38;5039667;28;20036;-88
2023/04/02 04:46:53;;;;;;;16.80;10.70;;;;;;;7.87;74.62;98561.09;5070351;28;20021;-88
2023/04/02 04:49:43;;;;;;;11.82;8.32;;;;;;;7.79;75.52;98556.41;5042336;28;20095;-88
2023/04/02 04:52:23;;;;;;;8.88;6.10;;;;;;;7.86;75.20;98564.22;5055111;28;20029;-88
2023/04/02 04:54:48;;;;;;;5.40;4.17;;;;;;;7.83;74.90;98554.56;5055600;28;20070;-88
2023/04/02 04:57:37;;;;;;;7.68;4.45;;;;;;;7.79;75.33;98550.03;5055027;28;20032;-88
2023/04/02 05:00:19;;;;;;;11.15;4.70;;;;;;;7.84;75.29;98549.81;5051521;28;20029;-90
2023/04/02 05:02:56;;;;;;;8.10;4.78;;;;;;;7.78;74.99;98548.41;5035703;28;20021;-89
2023/04/02 05:05:29;;;;;;;14.63;3.97;;;;;;;7.87;74.61;98549.94;5035507;28;20054;-88
2023/04/02 05:08:03;;;;;;;4.88;3.10;;;;;;;7.97;74.49;98543.19;5053681;28;20406;-86
2023/04/02 05:10:47;;;;;;;4.93;2.05;;;;;;;8.00;73.58;98530.53;5054047;28;20505;-89
2023/04/02 05:13:30;;;;;;;2.67;2.20;;;;;;;8.09;73.79;98550.75;5052795;28;20513;-88
2023/04/02 05:16:17;;;;;;;8.00;2.80;;;;;;;8.20;73.31;98558.72;5035426;28;20051;-87
2023/04/02 05:18:49;;;;;;;5.28;2.83;;;;;;;8.34;73.24;98558.44;5043175;28;20038;-87
2023/04/02 05:21:25;;;;;;;5.35;4.03;;;;;;;8.38;72.64;98559.38;5052213;28;20040;-88
2023/04/02 05:24:28;;;;;;;14.77;8.30;;;;;;;8.40;72.48;98562.63;5054162;28;20075;-87
2023/04/02 05:27:00;;;;;;;10.05;6.68;;;;;;;8.41;72.84;98561.47;5052794;28;20028;-88
2023/04/02 05:29:37;;;;;;;7.72;5.05;;;;;;;8.38;72.92;98560.16;5047945;28;20028;-87
2023/04/02 05:32:20;;;;;;;7.25;4.28;;;;;;;8.56;72.09;98540.53;5054031;28;20024;-88
2023/04/02 05:34:53;;;;;;;19.08;9.85;;;;;;;8.89;71.74;98572.31;5036049;28;20090;-88
2023/04/02 05:37:22;;;;;;;17.25;9.13;;;;;;;8.95;71.38;98554.19;5031167;28;20036;-90
2023/04/02 05:39:55;;;;;;;14.88;6.25;;;;;;;9.25;70.76;98571.53;5030906;28;20021;-89
2023/04/02 05:42:30;;;;;;;15.85;13.95;;;;;;;9.46;69.63;98583.75;5046681;28;20044;-88
2023/04/02 05:45:21;;;;;;;34.00;31.15;;;;;;;9.71;68.21;98575.34;5016947;28;20018;-89
2023/04/02 05:47:50;;;;;;;39.08;35.08;;;;;;;9.72;67.75;98549.88;5021081;28;20038;-87
2023/04/02 05:50:39;;;;;;;5.35;4.82;;;;;;;9.88;66.82;98561.13;5028412;28;20026;-86
2023/04/02 05:53:16;;;;;;;11.07;7.20;;;;;;;10.10;67.28;98587.75;5029903;28;20029;-87
2023/04/02 05:55:56;;;;;;;9.43;5.43;;;;;;;10.29;66.99;98593.84;5031065;28;20184;-87
2023/04/02 05:58:31;;;;;;;30.17;24.48;;;;;;;10.43;66.92;98587.88;5030135;28;20392;-87
2023/04/02 06:01:28;;;;;;;6.20;5.15;;;;;;;10.58;66.46;98594.69;5029407;28;20544;-86
2023/04/02 06:04:11;;;;;;;6.72;3.97;;;;;;;10.65;65.71;98584.50;5019762;28;20035;-86
2023/04/02 06:06:40;;;;;;;14.30;11.73;;;;;;;10.78;66.00;98593.66;5030872;28;20021;-86
2023/04/02 06:09:22;;;;;;;6.82;4.35;;;;;;;10.63;63.78;98583.25;5029849;28;20077;-87
2023/04/02 06:11:58;;;;;;;4.82;3.67;;;;;;;10.71;64.45;98601.84;5029428;28;20589;-86
2023/04/02 06:14:26;;;;;;;15.57;5.70;;;;;;;10.75;64.26;98599.16;5032701;28;20029;-86
2023/04/02 06:16:52;;;;;;;10.25;5.20;;;;;;;10.73;62.82;98602.31;5029254;28;20030;-86
2023/04/02 06:19:29;;;;;;;5.63;4.30;;;;;;;10.57;63.92;98577.13;5029586;28;20033;-87
2023/04/02 06:21:59;;;;;;;6.82;3.58;;;;;;;10.45;65.26;98591.94;5029693;28;20392;-87
2023/04/02 06:24:28;;;;;;;10.30;6.53;;;;;;;10.43;65.13;98605.47;5019446;28;20025;-86
2023/04/02 06:27:05;;;;;;;8.70;6.05;;;;;;;10.52;66.49;98620.13;5011457;28;20083;-87
2023/04/02 06:29:39;;;;;;;7.18;5.93;;;;;;;10.36;66.52;98624.78;5037224;28;20065;-86
2023/04/02 06:32:10;;;;;;;9.90;6.78;;;;;;;10.42;67.94;98617.81;5010203;28;20022;-87
2023/04/02 06:34:38;;;;;;;17.38;7.40;;;;;;;10.47;68.42;98622.34;5011984;28;20042;-87
2023/04/02 06:37:17;;;;;;;6.80;4.82;;;;;;;10.39;66.74;98626.91;5016682;28;20021;-86
2023/04/02 06:39:43;;;;;;;15.18;9.23;;;;;;;10.44;68.31;98618.28;5030134;28;20029;-87
2023/04/02 06:42:22;;;;;;;12.75;7.07;;;;;;;10.48;67.97;98624.78;5030878;28;20033;-87
2023/04/02 06:44:48;;;;;;;8.32;6.38;;;;;;;10.45;67.15;98619.91;5029760;28;20060;-87
2023/04/02 06:47:32;;;;;;;14.48;7.20;;;;;;;10.52;68.01;98633.28;5044778;28;20017;-87
2023/04/02 06:50:26;;;;;;;8.60;6.38;;;;;;;10.62;68.20;98626.38;5026873;28;20037;-86
2023/04/02 06:52:58;;;;;;;18.50;12.10;;;;;;;10.52;69.36;98634.09;5029576;28;20117;-85
2023/04/02 06:55:55;;;;;;;284.60;148.13;;;;;;;10.70;68.79;98625.41;5029425;28;20022;-87
2023/04/02 06:58:21;;;;;;;164.60;86.35;;;;;;;10.60;67.21;98614.72;5029584;28;20026;-87
2023/04/02 07:00:49;;;;;;;34.00;20.30;;;;;;;10.72;66.13;98622.25;5029429;28;20029;-87
2023/04/02 07:03:26;;;;;;;12.60;8.68;;;;;;;10.89;65.57;98633.09;5028520;28;20033;-87
2023/04/02 07:05:53;;;;;;;8.75;5.53;;;;;;;11.01;66.01;98632.25;5029347;28;20037;-86
2023/04/02 07:08:19;;;;;;;8.35;6.90;;;;;;;10.94;65.12;98630.06;5027690;28;20029;-87
2023/04/02 07:10:45;;;;;;;5.53;4.32;;;;;;;11.07;64.80;98632.78;5041985;28;20476;-84
2023/04/02 07:13:15;;;;;;;13.85;4.78;;;;;;;11.07;64.39;98633.59;5040903;28;20026;-87
2023/04/02 07:15:42;;;;;;;14.93;7.65;;;;;;;11.06;64.72;98629.16;5038241;28;20060;-88
2023/04/02 07:18:25;;;;;;;11.07;6.13;;;;;;;11.19;64.90;98643.09;5032242;28;20400;-87
2023/04/02 07:20:51;;;;;;;16.08;5.20;;;;;;;11.34;64.78;98652.69;5025806;28;20033;-87
2023/04/02 07:23:16;;;;;;;27.10;6.47;;;;;;;11.38;64.73;98636.78;5023308;28;20025;-88
2023/04/02 07:25:42;;;;;;;19.52;7.30;;;;;;;11.45;64.80;98628.56;5028611;28;20116;-87
2023/04/02 07:28:07;;;;;;;5.90;4.18;;;;;;;11.64;63.07;98641.00;5028396;28;20120;-87
2023/04/02 07:30:33;;;;;;;6.13;4.70;;;;;;;11.89;62.25;98652.84;5030887;28;20033;-86
2023/04/02 07:32:58;;;;;;;10.00;4.57;;;;;;;11.94;61.92;98643.34;5025940;28;20057;-87
2023/04/02 07:35:25;;;;;;;5.75;4.20;;;;;;;11.96;60.32;98637.38;5031118;28;20068;-87
2023/04/02 07:37:51;;;;;;;8.68;5.07;;;;;;;12.03;60.62;98649.59;5025094;28;20072;-87
2023/04/02 07:40:22;;;;;;;11.23;5.32;;;;;;;12.05;61.53;98654.81;5047826;28;20025;-88
2023/04/02 07:42:48;;;;;;;7.80;4.80;;;;;;;11.96;61.67;98626.19;5028152;28;20030;-87
2023/04/02 07:45:14;;;;;;;8.43;4.82;;;;;;;12.08;60.43;98623.28;5037733;28;20488;-88
2023/04/02 07:47:41;;;;;;;11.10;5.20;;;;;;;12.32;60.23;98649.44;5030461;28;20577;-87
2023/04/02 07:50:07;;;;;;;12.90;7.60;;;;;;;12.25;59.51;98632.44;5031380;28;20488;-87
2023/04/02 07:52:37;;;;;;;12.18;6.43;;;;;;;12.64;60.32;98647.31;5030447;28;20029;-87
2023/04/02 07:55:03;;;;;;;10.43;6.03;;;;;;;12.76;61.53;98639.91;5022356;28;20029;-86
2023/04/02 07:57:28;;;;;;;8.70;5.97;;;;;;;12.77;61.16;98631.13;5023825;28;20035;-85
2023/04/02 07:59:55;;;;;;;7.70;5.88;;;;;;;13.01;61.97;98631.97;5024596;28;20014;-86
2023/04/02 08:02:22;;;;;;;9.65;6.80;;;;;;;13.45;61.85;98641.22;5025476;28;20032;-87
2023/04/02 08:04:51;;;;;;;7.93;5.72;;;;;;;13.78;59.05;98642.56;5031137;28;20135;-87
2023/04/02 08:07:20;;;;;;;15.20;5.78;;;;;;;14.02;59.12;98634.91;5020156;28;20041;-87
2023/04/02 08:09:46;;;;;;;15.30;6.63;;;;;;;14.38;59.11;98634.59;5022213;28;20048;-86
2023/04/02 08:12:13;;;;;;;10.43;6.10;;;;;;;14.44;54.78;98628.25;5023474;28;20473;-87
2023/04/02 08:14:38;;;;;;;10.55;5.13;;;;;;;14.43;55.69;98635.06;5010855;28;20484;-86
2023/04/02 08:17:04;;;;;;;19.17;5.47;;;;;;;14.76;53.85;98638.31;5017563;28;20106;-86
2023/04/02 08:19:30;;;;;;;13.68;4.60;;;;;;;14.61;52.09;98631.69;5025063;28;20029;-86
2023/04/02 08:21:56;;;;;;;4.97;3.58;;;;;;;14.82;51.54;98631.16;5018221;28;20064;-86
2023/04/02 08:24:22;;;;;;;7.47;4.35;;;;;;;14.94;51.62;98626.47;5030865;28;20025;-85
2023/04/02 08:26:48;;;;;;;5.50;2.83;;;;;;;15.27;48.21;98621.97;5015356;28;20053;-85
2023/04/02 08:29:14;;;;;;;5.68;2.30;;;;;;;15.30;46.91;98630.44;5019273;28;20083;-86
2023/04/02 08:31:40;;;;;;;4.40;2.55;;;;;;;15.40;44.67;98622.47;5030388;28;20104;-85
2023/04/02 08:34:06;;;;;;;3.80;2.50;;;;;;;15.43;44.45;98628.16;5037151;28;20049;-86
2023/04/02 08:36:34;;;;;;;2.10;1.75;;;;;;;15.49;44.14;98600.44;5033555;28;20119;-84
2023/04/02 08:39:00;;;;;;;4.15;2.25;;;;;;;15.22;44.67;98606.22;5033387;28;20584;-84
2023/04/02 08:41:27;;;;;;;4.07;1.98;;;;;;;15.38;44.65;98631.31;5018490;28;20029;-85
2023/04/02 08:44:14;;;;;;;4.40;1.80;;;;;;;15.20;44.53;98639.59;5032379;28;20037;-84
2023/04/02 08:46:49;;;;;;;3.33;1.75;;;;;;;15.33;44.02;98639.34;5047237;28;20029;-83
2023/04/02 08:49:50;;;;;;;3.92;1.42;;;;;;;15.52;44.75;98635.47;5049268;28;20139;-86
2023/04/02 08:52:29;;;;;;;4.25;2.00;;;;;;;16.06;44.25;98623.81;5031799;28;20022;-86
2023/04/02 08:54:56;;;;;;;3.10;1.60;;;;;;;16.18;42.97;98617.06;5031598;28;20022;-84
2023/04/02 08:57:38;;;;;;;2.75;1.80;;;;;;;16.23;42.50;98619.50;5015286;28;20033;-84
2023/04/02 09:00:24;;;;;;;3.15;1.65;;;;;;;16.42;42.45;98618.38;5022011;28;20153;-86
2023/04/02 09:02:57;;;;;;;1.50;1.30;;;;;;;16.36;42.48;98611.53;5045128;28;20514;-85
2023/04/02 09:05:27;;;;;;;3.97;2.60;;;;;;;16.55;40.87;98601.94;5034755;28;20107;-85
2023/04/02 09:07:57;;;;;;;7.35;2.78;;;;;;;16.45;39.96;98603.47;5034431;28;20024;-85
2023/04/02 09:10:32;;;;;;;3.47;2.30;;;;;;;16.53;39.73;98604.31;5029032;28;20033;-86
2023/04/02 09:12:59;;;;;;;5.50;3.65;;;;;;;16.73;40.27;98601.16;5030804;28;20041;-85
2023/04/02 09:15:33;;;;;;;3.83;1.63;;;;;;;16.90;41.02;98583.50;5031339;28;20117;-86
2023/04/02 09:18:17;;;;;;;3.75;2.10;;;;;;;17.01;40.54;98592.00;5046000;28;20075;-86
2023/04/02 09:20:43;;;;;;;2.67;1.52;;;;;;;17.30;40.41;98582.78;5027926;28;20422;-86
2023/04/02 09:23:18;;;;;;;2.67;1.48;;;;;;;17.48;38.75;98591.25;5030673;28;20040;-85
2023/04/02 09:25:47;;;;;;;3.88;1.70;;;;;;;17.39;39.44;98591.66;5031613;28;20025;-85
2023/04/02 09:28:13;;;;;;;34.28;5.20;;;;;;;17.54;39.25;98587.63;5032006;28;20028;-86
2023/04/02 09:31:17;;;;;;;2.90;2.60;;;;;;;17.59;38.88;98586.41;5030040;28;20575;-86
2023/04/02 09:33:50;;;;;;;13.10;7.88;;;;;;;17.54;37.28;98583.97;5004256;28;20045;-86
2023/04/02 09:36:39;;;;;;;16.73;7.55;;;;;;;17.77;37.34;98583.56;5028247;28;20024;-86
2023/04/02 09:39:17;;;;;;;1.50;1.38;;;;;;;17.81;35.72;98583.56;5028170;28;20054;-85
2023/04/02 09:41:43;;;;;;;0.70;0.70;;;;;;;18.00;36.47;98581.50;5029200;28;20039;-85
2023/04/02 09:44:26;;;;;;;2.38;1.00;;;;;;;18.21;36.11;98575.00;5027908;28;20111;-86
2023/04/02 09:47:06;;;;;;;19.20;13.15;;;;;;;18.03;35.22;98573.03;5025498;28;20025;-84
2023/04/02 09:49:37;;;;;;;3.28;1.75;;;;;;;18.10;34.55;98570.22;5022099;28;20407;-85
2023/04/02 09:52:07;;;;;;;13.50;7.72;;;;;;;18.28;35.91;98560.03;5041501;28;20032;-85
2023/04/02 09:54:42;;;;;;;;;;;;;;;18.25;34.65;98561.66;5025215;28;20037;-84
2023/04/02 09:57:22;;;;;;;2.15;1.45;;;;;;;18.25;35.92;98567.34;5027545;28;19916;-84
2023/04/02 10:00:06;;;;;;;;;;;;;;;18.07;34.17;98575.88;5031724;28;20035;-84
2023/04/02 10:02:31;;;;;;;3.25;1.30;;;;;;;17.91;33.74;98556.47;5031286;28;20284;-85
2023/04/02 10:05:03;;;;;;;1.60;0.88;;;;;;;18.06;34.79;98560.91;5029387;28;20032;-85
2023/04/02 10:07:36;;;;;;;1.50;0.75;;;;;;;18.07;34.31;98554.03;5030735;28;20538;-85
2023/04/02 10:10:26;;;;;;;3.45;1.40;;;;;;;17.85;34.62;98556.09;5026807;28;20018;-84
2023/04/02 10:13:12;;;;;;;1.15;0.70;;;;;;;18.00;33.47;98548.38;5019803;28;20510;-85
2023/04/02 10:16:04;;;;;;;4.07;1.45;;;;;;;17.98;34.23;98552.81;5030276;28;20021;-85
2023/04/02 10:18:40;;;;;;;1.88;1.08;;;;;;;17.87;34.40;98547.19;5031445;28;20060;-85
2023/04/02 10:21:09;;;;;;;2.28;1.15;;;;;;;18.12;35.18;98546.34;5031229;28;20094;-86
2023/04/02 10:23:35;;;;;;;3.03;1.00;;;;;;;17.97;34.48;98543.50;5028892;28;20044;-86
2023/04/02 10:26:37;;;;;;;1.92;1.30;;;;;;;17.85;34.74;98543.94;5030107;28;20021;-85
2023/04/02 10:29:23;;;;;;;2.15;0.70;;;;;;;17.95;34.75;98548.78;5011345;28;20072;-86
2023/04/02 10:31:58;;;;;;;1.00;0.90;;;;;;;17.94;35.02;98545.16;5041710;28;20126;-85
2023/04/02 10:34:44;;;;;;;1.13;0.85;;;;;;;18.07;34.06;98539.88;5029189;28;20049;-85
2023/04/02 10:37:31;;;;;;;1.73;1.20;;;;;;;18.26;32.85;98540.63;5024430;28;20566;-85
2023/04/02 10:40:11;;;;;;;1.35;0.80;;;;;;;18.31;33.63;98543.03;5018277;28;20025;-85
2023/04/02 10:42:57;;;;;;;1.50;0.75;;;;;;;18.42;32.70;98537.34;5028553;28;20500;-85
2023/04/02 10:45:55;;;;;;;6.45;1.40;;;;;;;18.82;32.60;98533.50;5052763;28;20023;-86
2023/04/02 10:49:13;;;;;;;2.63;1.00;;;;;;;19.33;31.51;98514.13;5018213;28;20546;-85
2023/04/02 10:51:54;;;;;;;1.38;0.50;;;;;;;19.09;31.29;98511.06;4970905;28;20030;-85
2023/04/02 10:54:36;;;;;;;0.60;0.52;;;;;;;19.18;31.75;98511.38;5023720;28;20033;-85
2023/04/02 10:57:37;;;;;;;0.80;0.63;;;;;;;18.95;31.54;98503.44;5026847;28;20216;-85
2023/04/02 11:00:15;;;;;;;0.55;0.40;;;;;;;19.31;30.68;98496.75;5026920;28;20041;-86
2023/04/02 11:02:56;;;;;;;2.97;0.57;;;;;;;19.50;30.17;98498.97;5045301;28;20507;-85
2023/04/02 11:05:48;;;;;;;1.02;0.90;;;;;;;19.46;29.94;98503.06;5046959;28;20029;-85
2023/04/02 11:08:41;;;;;;;2.47;0.60;;;;;;;19.95;30.28;98491.66;5030409;28;20028;-85
2023/04/02 11:11:30;;;;;;;0.55;0.50;;;;;;;20.25;30.23;98494.97;5033045;28;20060;-85
2023/04/02 11:14:16;;;;;;;2.63;0.83;;;;;;;20.32;30.88;98494.84;5030875;28;20499;-85
2023/04/02 11:16:42;;;;;;;2.03;0.60;;;;;;;19.96;29.59;98493.25;5035770;28;20028;-85
2023/04/02 11:19:23;;;;;;;1.27;0.77;;;;;;;19.95;30.55;98494.50;5024255;28;20123;-84
2023/04/02 11:21:51;;;;;;;0.63;0.47;;;;;;;19.93;29.67;98496.97;5023533;28;20036;-84
2023/04/02 11:24:30;;;;;;;4.20;0.80;;;;;;;19.76;29.40;98495.91;5032268;28;20100;-85
2023/04/02 11:27:11;;;;;;;0.65;0.65;;;;;;;19.76;30.05;98488.19;5030480;28;20029;-84
2023/04/02 11:30:11;;;;;;;0.75;0.60;;;;;;;19.82;29.57;98496.25;5032433;28;20418;-84
2023/04/02 11:32:44;;;;;;;2.47;0.70;;;;;;;20.02;28.95;98490.78;5008050;28;20059;-85
2023/04/02 11:35:30;;;;;;;0.65;0.60;;;;;;;20.10;29.52;98489.47;5050586;28;20534;-85
2023/04/02 11:38:04;;;;;;;1.02;0.40;;;;;;;20.47;29.91;98475.59;5031103;28;20032;-85
2023/04/02 11:40:43;;;;;;;1.25;0.65;;;;;;;20.83;28.91;98477.94;5038559;28;20759;-85
2023/04/02 11:43:34;;;;;;;1.02;0.50;;;;;;;20.87;28.18;98473.00;5023881;28;20546;-85
2023/04/02 11:46:05;;;;;;;0.98;0.60;;;;;;;20.83;28.96;98477.16;5028567;28;20031;-85
2023/04/02 11:48:34;;;;;;;1.23;0.55;;;;;;;21.04;28.78;98476.00;5027764;28;20095;-85
2023/04/02 11:51:12;;;;;;;0.90;0.63;;;;;;;20.52;28.80;98469.44;5023579;28;20032;-85
2023/04/02 11:53:41;;;;;;;2.35;0.75;;;;;;;19.89;29.51;98456.41;5025053;28;20036;-85
2023/04/02 11:56:15;;;;;;;4.75;1.23;;;;;;;19.76;29.60;98456.19;5032053;28;20741;-85
2023/04/02 11:59:06;;;;;;;0.40;0.40;;;;;;;19.85;29.99;98464.19;5050081;28;20530;-86
2023/04/02 12:01:38;;;;;;;0.98;0.80;;;;;;;20.19;28.65;98455.66;5032678;28;20419;-85
2023/04/02 12:04:30;;;;;;;0.68;0.65;;;;;;;20.68;27.88;98451.75;5029768;28;20025;-85
2023/04/02 12:07:09;;;;;;;0.80;0.60;;;;;;;20.71;27.56;98452.94;5013109;28;20029;-86
2023/04/02 12:09:43;;;;;;;0.60;0.60;;;;;;;21.01;27.95;98451.28;5032949;28;20162;-86
2023/04/02 12:12:39;;;;;;;1.45;0.50;;;;;;;21.15;28.07;98448.19;5029804;28;20026;-86
2023/04/02 12:15:39;;;;;;;0.55;0.55;;;;;;;21.04;27.63;98445.53;5029138;28;20025;-88
2023/04/02 12:18:23;;;;;;;2.35;1.13;;;;;;;21.00;27.44;98441.94;5043735;28;20455;-88
2023/04/02 12:20:53;;;;;;;0.50;0.50;;;;;;;21.23;27.37;98434.66;5023138;28;20514;-88
2023/04/02 12:23:37;;;;;;;1.45;0.95;;;;;;;20.82;28.12;98436.56;5031516;28;20025;-88
2023/04/02 12:26:05;;;;;;;1.02;0.73;;;;;;;20.69;28.05;98435.53;5032621;28;20103;-88